Amagasaki, Japan
Current Conditions -  °F | °C
As of 5:00 PM on Tuesday 21 Oct 2014 (Local Time) from RJOO Reporting Station
Broken Clouds Broken Clouds  
Wind Chill: 75°   Ceiling: 13000
Heat Index: 75°   Visibility: 6mi
Dew Point: 63°   Wind: 6mph
Humidity: 65%   Direction: 250°WSW
Pressure: 29.91"   Gusts: NA
Location:  34.71°N, 135.41°E
Report Text: RJOO 210800Z 25005KT 220V300 9999 FEW025 BKN130 24/17 Q1013
Loading
Personal Weather Stations






























Interactive Weather Map
Tropical Storm Tracking
New forecast layout! Learn more

10-Day Weather Forecast

Advertisements
Track Severe Weather on mobile